sensor_id;sensor_type;location;lat;lon;timestamp;pressure;altitude;pressure_sealevel;temperature;humidity
33953;BME280;20231;42.710;23.280;2023-02-01T00:01:17;95035.53;;;2.83;69.06
33953;BME280;20231;42.710;23.280;2023-02-01T00:03:42;95016.78;;;3.21;68.47
33953;BME280;20231;42.710;23.280;2023-02-01T00:06:08;95038.78;;;3.53;67.07
33953;BME280;20231;42.710;23.280;2023-02-01T00:08:33;95034.09;;;3.27;68.01
33953;BME280;20231;42.710;23.280;2023-02-01T00:11:08;95042.91;;;3.65;67.07
33953;BME280;20231;42.710;23.280;2023-02-01T00:13:36;95039.38;;;3.71;66.21
33953;BME280;20231;42.710;23.280;2023-02-01T00:16:08;95045.78;;;3.52;66.38
33953;BME280;20231;42.710;23.280;2023-02-01T00:18:34;95049.09;;;3.75;66.32
33953;BME280;20231;42.710;23.280;2023-02-01T00:21:00;95051.38;;;3.72;65.79
33953;BME280;20231;42.710;23.280;2023-02-01T00:23:25;95042.72;;;3.83;65.43
33953;BME280;20231;42.710;23.280;2023-02-01T00:25:51;95040.84;;;3.95;64.57
33953;BME280;20231;42.710;23.280;2023-02-01T00:28:16;95031.69;;;4.09;64.24
33953;BME280;20231;42.710;23.280;2023-02-01T00:30:42;95031.00;;;3.85;64.13
33953;BME280;20231;42.710;23.280;2023-02-01T00:33:07;95026.13;;;3.89;63.97
33953;BME280;20231;42.710;23.280;2023-02-01T00:35:35;95034.16;;;4.15;63.30
33953;BME280;20231;42.710;23.280;2023-02-01T00:38:01;95030.81;;;4.20;62.68
33953;BME280;20231;42.710;23.280;2023-02-01T00:40:27;95021.63;;;4.17;61.80
33953;BME280;20231;42.710;23.280;2023-02-01T00:42:52;95027.09;;;3.99;62.18
33953;BME280;20231;42.710;23.280;2023-02-01T00:45:19;95030.75;;;4.15;61.94
33953;BME280;20231;42.710;23.280;2023-02-01T00:47:44;95023.22;;;4.02;61.50
33953;BME280;20231;42.710;23.280;2023-02-01T00:50:10;95014.59;;;4.01;61.58
33953;BME280;20231;42.710;23.280;2023-02-01T00:52:35;95017.53;;;4.05;61.45
33953;BME280;20231;42.710;23.280;2023-02-01T00:55:01;95018.97;;;3.68;61.72
33953;BME280;20231;42.710;23.280;2023-02-01T00:57:26;95019.31;;;3.88;61.71
33953;BME280;20231;42.710;23.280;2023-02-01T00:59:52;95014.22;;;3.65;61.47
33953;BME280;20231;42.710;23.280;2023-02-01T01:02:17;95025.50;;;3.54;62.52
33953;BME280;20231;42.710;23.280;2023-02-01T01:04:42;95028.38;;;3.41;61.69
33953;BME280;20231;42.710;23.280;2023-02-01T01:07:08;94987.22;;;3.15;62.01
33953;BME280;20231;42.710;23.280;2023-02-01T01:09:34;95022.06;;;3.37;62.36
33953;BME280;20231;42.710;23.280;2023-02-01T01:11:59;95022.94;;;3.43;61.78
33953;BME280;20231;42.710;23.280;2023-02-01T01:14:31;95022.94;;;3.70;61.29
33953;BME280;20231;42.710;23.280;2023-02-01T01:16:57;95023.50;;;3.45;60.69
33953;BME280;20231;42.710;23.280;2023-02-01T01:19:22;94985.91;;;3.57;60.56
33953;BME280;20231;42.710;23.280;2023-02-01T01:21:48;94994.25;;;3.70;59.30
33953;BME280;20231;42.710;23.280;2023-02-01T01:24:13;95000.31;;;3.76;59.19
33953;BME280;20231;42.710;23.280;2023-02-01T01:26:38;95007.06;;;3.88;58.25
33953;BME280;20231;42.710;23.280;2023-02-01T01:29:04;95010.25;;;3.62;58.39
33953;BME280;20231;42.710;23.280;2023-02-01T01:31:30;95015.69;;;3.89;57.85
33953;BME280;20231;42.710;23.280;2023-02-01T01:33:57;95014.91;;;3.88;57.11
33953;BME280;20231;42.710;23.280;2023-02-01T01:36:24;95019.44;;;3.65;57.87
33953;BME280;20231;42.710;23.280;2023-02-01T01:38:50;95017.88;;;3.80;57.59
33953;BME280;20231;42.710;23.280;2023-02-01T01:41:22;95010.09;;;3.53;57.76
33953;BME280;20231;42.710;23.280;2023-02-01T01:46:22;95026.66;;;3.47;58.23
33953;BME280;20231;42.710;23.280;2023-02-01T01:49:02;95027.94;;;3.44;57.91
33953;BME280;20231;42.710;23.280;2023-02-01T01:51:31;95016.63;;;3.27;58.21
33953;BME280;20231;42.710;23.280;2023-02-01T01:54:16;95028.28;;;3.64;57.53
33953;BME280;20231;42.710;23.280;2023-02-01T01:56:45;95026.88;;;3.45;57.73
33953;BME280;20231;42.710;23.280;2023-02-01T01:59:12;95031.91;;;3.35;57.86
33953;BME280;20231;42.710;23.280;2023-02-01T02:01:38;95022.66;;;3.28;58.32
33953;BME280;20231;42.710;23.280;2023-02-01T02:04:03;95018.88;;;3.35;58.46
33953;BME280;20231;42.710;23.280;2023-02-01T02:06:50;95023.91;;;3.25;58.95
33953;BME280;20231;42.710;23.280;2023-02-01T02:09:17;95028.44;;;3.57;57.82
33953;BME280;20231;42.710;23.280;2023-02-01T02:11:42;95014.41;;;3.75;57.25
33953;BME280;20231;42.710;23.280;2023-02-01T02:14:09;94996.28;;;3.68;56.95
33953;BME280;20231;42.710;23.280;2023-02-01T02:25:33;95017.25;;;3.90;56.24
33953;BME280;20231;42.710;23.280;2023-02-01T02:36:37;95036.94;;;3.53;57.76
33953;BME280;20231;42.710;23.280;2023-02-01T02:39:17;95027.19;;;3.60;58.17
33953;BME280;20231;42.710;23.280;2023-02-01T02:42:11;95027.78;;;3.51;58.24
33953;BME280;20231;42.710;23.280;2023-02-01T02:45:09;95031.88;;;3.07;59.97
33953;BME280;20231;42.710;23.280;2023-02-01T02:50:54;95026.75;;;3.52;58.87
33953;BME280;20231;42.710;23.280;2023-02-01T02:56:45;95022.84;;;3.38;59.53
33953;BME280;20231;42.710;23.280;2023-02-01T02:59:30;95029.72;;;3.44;58.80
33953;BME280;20231;42.710;23.280;2023-02-01T03:02:17;95016.53;;;2.83;60.14
33953;BME280;20231;42.710;23.280;2023-02-01T03:05:01;95030.44;;;2.88;59.45
33953;BME280;20231;42.710;23.280;2023-02-01T03:12:49;95041.06;;;2.98;59.22
33953;BME280;20231;42.710;23.280;2023-02-01T03:15:21;95060.94;;;3.39;58.20
33953;BME280;20231;42.710;23.280;2023-02-01T03:17:50;95042.84;;;3.09;58.77
33953;BME280;20231;42.710;23.280;2023-02-01T03:20:18;95043.69;;;2.98;59.83
33953;BME280;20231;42.710;23.280;2023-02-01T03:22:46;95039.81;;;3.01;59.41
33953;BME280;20231;42.710;23.280;2023-02-01T03:25:19;95042.09;;;3.09;58.90
33953;BME280;20231;42.710;23.280;2023-02-01T03:28:06;95052.59;;;3.14;58.98
33953;BME280;20231;42.710;23.280;2023-02-01T03:30:39;95036.72;;;3.27;58.47
33953;BME280;20231;42.710;23.280;2023-02-01T03:33:12;95036.03;;;3.20;58.88
33953;BME280;20231;42.710;23.280;2023-02-01T03:36:09;95041.69;;;3.28;58.22
33953;BME280;20231;42.710;23.280;2023-02-01T03:44:03;95051.41;;;3.44;57.84
33953;BME280;20231;42.710;23.280;2023-02-01T03:46:39;95034.25;;;3.48;57.45
33953;BME280;20231;42.710;23.280;2023-02-01T03:49:09;95042.34;;;3.63;57.43
33953;BME280;20231;42.710;23.280;2023-02-01T03:51:38;95031.69;;;3.37;57.50
33953;BME280;20231;42.710;23.280;2023-02-01T03:54:06;95041.72;;;3.72;56.98
33953;BME280;20231;42.710;23.280;2023-02-01T03:56:36;95048.88;;;3.49;57.48
33953;BME280;20231;42.710;23.280;2023-02-01T03:59:03;95036.50;;;3.56;57.24
33953;BME280;20231;42.710;23.280;2023-02-01T04:01:29;95052.41;;;3.71;56.96
33953;BME280;20231;42.710;23.280;2023-02-01T04:03:56;95049.56;;;3.72;56.29
33953;BME280;20231;42.710;23.280;2023-02-01T04:06:22;95052.94;;;3.84;56.51
33953;BME280;20231;42.710;23.280;2023-02-01T04:08:47;95046.44;;;3.59;57.10
33953;BME280;20231;42.710;23.280;2023-02-01T04:11:12;95055.09;;;3.59;57.31
33953;BME280;20231;42.710;23.280;2023-02-01T04:13:38;95059.59;;;3.25;58.23
33953;BME280;20231;42.710;23.280;2023-02-01T04:16:03;95037.22;;;3.40;58.25
33953;BME280;20231;42.710;23.280;2023-02-01T04:18:29;95062.03;;;3.43;58.25
33953;BME280;20231;42.710;23.280;2023-02-01T04:20:54;95045.13;;;3.45;58.29
33953;BME280;20231;42.710;23.280;2023-02-01T04:23:20;95043.13;;;3.36;57.95
33953;BME280;20231;42.710;23.280;2023-02-01T04:25:46;95057.47;;;3.50;58.38
33953;BME280;20231;42.710;23.280;2023-02-01T04:28:11;95056.88;;;3.59;58.11
33953;BME280;20231;42.710;23.280;2023-02-01T04:30:37;95053.25;;;3.60;58.23
33953;BME280;20231;42.710;23.280;2023-02-01T04:33:02;95049.47;;;3.67;57.91
33953;BME280;20231;42.710;23.280;2023-02-01T04:35:30;95032.34;;;3.71;57.63
33953;BME280;20231;42.710;23.280;2023-02-01T04:37:56;95057.09;;;3.69;58.32
33953;BME280;20231;42.710;23.280;2023-02-01T04:40:21;95046.00;;;3.78;57.94
33953;BME280;20231;42.710;23.280;2023-02-01T04:42:46;95053.88;;;3.95;57.54
33953;BME280;20231;42.710;23.280;2023-02-01T04:45:12;95066.34;;;3.76;58.00
33953;BME280;20231;42.710;23.280;2023-02-01T04:47:38;95058.16;;;3.84;57.96
33953;BME280;20231;42.710;23.280;2023-02-01T04:50:04;95051.09;;;3.85;58.20
33953;BME280;20231;42.710;23.280;2023-02-01T04:52:31;95062.44;;;3.90;58.24
33953;BME280;20231;42.710;23.280;2023-02-01T04:54:56;95055.63;;;3.89;58.14
33953;BME280;20231;42.710;23.280;2023-02-01T04:57:24;95086.09;;;3.72;59.46
33953;BME280;20231;42.710;23.280;2023-02-01T04:59:50;95065.34;;;3.77;59.25
33953;BME280;20231;42.710;23.280;2023-02-01T05:02:15;95070.44;;;3.72;59.75
33953;BME280;20231;42.710;23.280;2023-02-01T05:04:41;95068.28;;;3.42;60.31
33953;BME280;20231;42.710;23.280;2023-02-01T05:07:06;95060.13;;;3.38;61.13
33953;BME280;20231;42.710;23.280;2023-02-01T05:09:31;95092.69;;;3.75;60.26
33953;BME280;20231;42.710;23.280;2023-02-01T05:11:57;95072.34;;;3.77;59.46
33953;BME280;20231;42.710;23.280;2023-02-01T05:14:41;95087.44;;;3.36;60.66
33953;BME280;20231;42.710;23.280;2023-02-01T05:17:06;95085.47;;;3.65;60.38
33953;BME280;20231;42.710;23.280;2023-02-01T05:19:31;95096.75;;;3.71;60.00
33953;BME280;20231;42.710;23.280;2023-02-01T05:21:57;95087.00;;;3.66;60.12
33953;BME280;20231;42.710;23.280;2023-02-01T05:24:22;95081.94;;;3.88;59.74
33953;BME280;20231;42.710;23.280;2023-02-01T05:26:48;95078.09;;;3.90;59.26
33953;BME280;20231;42.710;23.280;2023-02-01T05:29:15;95085.78;;;3.97;59.38
33953;BME280;20231;42.710;23.280;2023-02-01T05:31:41;95073.31;;;3.87;59.48
33953;BME280;20231;42.710;23.280;2023-02-01T05:34:07;95078.50;;;3.99;59.14
33953;BME280;20231;42.710;23.280;2023-02-01T05:36:33;95075.91;;;3.99;58.98
33953;BME280;20231;42.710;23.280;2023-02-01T05:38:58;95080.63;;;4.02;58.97
33953;BME280;20231;42.710;23.280;2023-02-01T05:41:24;95076.69;;;3.99;59.33
33953;BME280;20231;42.710;23.280;2023-02-01T05:43:50;95069.91;;;4.15;58.89
33953;BME280;20231;42.710;23.280;2023-02-01T05:46:15;95084.81;;;4.03;58.87
33953;BME280;20231;42.710;23.280;2023-02-01T05:48:41;95087.06;;;4.11;59.12
33953;BME280;20231;42.710;23.280;2023-02-01T05:51:07;95058.59;;;4.09;59.00
33953;BME280;20231;42.710;23.280;2023-02-01T05:53:33;95076.03;;;3.92;58.95
33953;BME280;20231;42.710;23.280;2023-02-01T05:55:58;95070.91;;;4.14;58.95
33953;BME280;20231;42.710;23.280;2023-02-01T05:58:24;95078.03;;;4.02;58.78
33953;BME280;20231;42.710;23.280;2023-02-01T06:00:49;95040.88;;;3.67;59.53
33953;BME280;20231;42.710;23.280;2023-02-01T06:03:14;95086.09;;;4.00;58.90
33953;BME280;20231;42.710;23.280;2023-02-01T06:05:40;95082.16;;;4.14;58.45
33953;BME280;20231;42.710;23.280;2023-02-01T06:08:05;95021.63;;;3.56;58.44
33953;BME280;20231;42.710;23.280;2023-02-01T06:10:32;95080.72;;;4.07;58.90
33953;BME280;20231;42.710;23.280;2023-02-01T06:12:58;95079.72;;;4.24;58.22
33953;BME280;20231;42.710;23.280;2023-02-01T06:15:23;95090.56;;;4.32;58.11
33953;BME280;20231;42.710;23.280;2023-02-01T06:17:49;95095.03;;;4.04;58.90
33953;BME280;20231;42.710;23.280;2023-02-01T06:20:14;95099.56;;;4.09;58.87
33953;BME280;20231;42.710;23.280;2023-02-01T06:22:40;95096.78;;;3.99;59.25
33953;BME280;20231;42.710;23.280;2023-02-01T06:25:08;95098.44;;;4.05;58.95
33953;BME280;20231;42.710;23.280;2023-02-01T06:27:34;95099.28;;;3.66;59.73
33953;BME280;20231;42.710;23.280;2023-02-01T06:29:59;95092.81;;;3.68;60.06
33953;BME280;20231;42.710;23.280;2023-02-01T06:32:25;95097.59;;;3.88;59.53
33953;BME280;20231;42.710;23.280;2023-02-01T06:34:51;95097.13;;;3.91;59.04
33953;BME280;20231;42.710;23.280;2023-02-01T06:37:20;95099.91;;;4.01;58.96
33953;BME280;20231;42.710;23.280;2023-02-01T06:39:46;95098.84;;;3.85;59.13
33953;BME280;20231;42.710;23.280;2023-02-01T06:42:12;95102.88;;;3.76;59.88
33953;BME280;20231;42.710;23.280;2023-02-01T06:44:37;95097.41;;;3.78;59.68
33953;BME280;20231;42.710;23.280;2023-02-01T06:47:03;95113.47;;;3.98;59.46
33953;BME280;20231;42.710;23.280;2023-02-01T06:49:29;95105.38;;;3.99;59.26
33953;BME280;20231;42.710;23.280;2023-02-01T06:51:54;95115.91;;;3.76;59.54
33953;BME280;20231;42.710;23.280;2023-02-01T06:54:20;95116.78;;;3.82;59.58
33953;BME280;20231;42.710;23.280;2023-02-01T06:56:45;95128.06;;;3.71;59.70
33953;BME280;20231;42.710;23.280;2023-02-01T06:59:11;95104.28;;;3.95;59.05
33953;BME280;20231;42.710;23.280;2023-02-01T07:01:36;95147.84;;;4.22;58.68
33953;BME280;20231;42.710;23.280;2023-02-01T07:04:02;95138.06;;;4.02;58.83
33953;BME280;20231;42.710;23.280;2023-02-01T07:06:27;95144.34;;;4.17;58.58
33953;BME280;20231;42.710;23.280;2023-02-01T07:08:53;95150.59;;;4.16;58.61
33953;BME280;20231;42.710;23.280;2023-02-01T07:11:21;95130.34;;;4.23;58.57
33953;BME280;20231;42.710;23.280;2023-02-01T07:13:47;95145.03;;;4.13;58.20
33953;BME280;20231;42.710;23.280;2023-02-01T07:16:14;95145.94;;;3.90;58.97
33953;BME280;20231;42.710;23.280;2023-02-01T07:18:40;95145.44;;;4.05;58.62
33953;BME280;20231;42.710;23.280;2023-02-01T07:21:06;95142.38;;;4.24;57.83
33953;BME280;20231;42.710;23.280;2023-02-01T07:23:31;95142.78;;;4.32;57.76
33953;BME280;20231;42.710;23.280;2023-02-01T07:26:00;95173.91;;;4.50;56.80
33953;BME280;20231;42.710;23.280;2023-02-01T07:28:26;95158.81;;;4.52;56.97
33953;BME280;20231;42.710;23.280;2023-02-01T07:30:53;95145.19;;;4.50;57.03
33953;BME280;20231;42.710;23.280;2023-02-01T07:33:20;95152.75;;;4.19;57.58
33953;BME280;20231;42.710;23.280;2023-02-01T07:35:47;95153.06;;;4.22;57.62
33953;BME280;20231;42.710;23.280;2023-02-01T07:38:12;95173.97;;;4.22;57.95
33953;BME280;20231;42.710;23.280;2023-02-01T07:40:38;95162.03;;;3.99;58.25
33953;BME280;20231;42.710;23.280;2023-02-01T07:43:03;95180.03;;;4.28;57.88
33953;BME280;20231;42.710;23.280;2023-02-01T07:45:31;95160.56;;;4.19;58.09
33953;BME280;20231;42.710;23.280;2023-02-01T07:47:56;95159.22;;;4.17;58.01
33953;BME280;20231;42.710;23.280;2023-02-01T07:50:22;95163.50;;;3.95;58.11
33953;BME280;20231;42.710;23.280;2023-02-01T07:52:47;95167.59;;;3.91;58.31
33953;BME280;20231;42.710;23.280;2023-02-01T07:55:13;95187.09;;;4.00;58.32
33953;BME280;20231;42.710;23.280;2023-02-01T07:57:38;95176.34;;;3.85;58.57
33953;BME280;20231;42.710;23.280;2023-02-01T08:00:04;95183.91;;;4.25;57.97
33953;BME280;20231;42.710;23.280;2023-02-01T08:02:48;95180.56;;;4.14;57.60
33953;BME280;20231;42.710;23.280;2023-02-01T08:05:13;95181.88;;;4.00;57.92
33953;BME280;20231;42.710;23.280;2023-02-01T08:07:39;95197.03;;;4.14;57.73
33953;BME280;20231;42.710;23.280;2023-02-01T08:10:04;95181.75;;;4.34;57.27
33953;BME280;20231;42.710;23.280;2023-02-01T08:12:36;95187.19;;;4.32;57.39
33953;BME280;20231;42.710;23.280;2023-02-01T08:15:03;95183.06;;;4.20;57.31
33953;BME280;20231;42.710;23.280;2023-02-01T08:17:29;95190.13;;;4.36;57.34
33953;BME280;20231;42.710;23.280;2023-02-01T08:19:55;95188.72;;;4.45;56.92
33953;BME280;20231;42.710;23.280;2023-02-01T08:22:20;95162.38;;;4.46;56.58
33953;BME280;20231;42.710;23.280;2023-02-01T08:24:49;95179.41;;;4.65;56.49
33953;BME280;20231;42.710;23.280;2023-02-01T08:27:14;95181.97;;;4.32;56.73
33953;BME280;20231;42.710;23.280;2023-02-01T08:29:40;95180.03;;;4.28;57.45
33953;BME280;20231;42.710;23.280;2023-02-01T08:32:05;95176.53;;;4.34;57.04
33953;BME280;20231;42.710;23.280;2023-02-01T08:34:31;95181.59;;;4.40;56.48
33953;BME280;20231;42.710;23.280;2023-02-01T08:36:56;95190.94;;;4.53;56.45
33953;BME280;20231;42.710;23.280;2023-02-01T08:39:26;95195.38;;;4.80;55.99
33953;BME280;20231;42.710;23.280;2023-02-01T08:41:52;95188.94;;;4.43;56.22
33953;BME280;20231;42.710;23.280;2023-02-01T08:44:36;95216.97;;;4.48;56.07
33953;BME280;20231;42.710;23.280;2023-02-01T08:47:02;95190.38;;;4.34;56.73
33953;BME280;20231;42.710;23.280;2023-02-01T08:49:28;95183.75;;;4.60;55.96
33953;BME280;20231;42.710;23.280;2023-02-01T08:51:54;95168.47;;;4.52;55.28
33953;BME280;20231;42.710;23.280;2023-02-01T08:54:20;95193.44;;;4.59;55.36
33953;BME280;20231;42.710;23.280;2023-02-01T08:56:46;95188.19;;;4.59;55.36
33953;BME280;20231;42.710;23.280;2023-02-01T08:59:11;95168.81;;;4.55;55.22
33953;BME280;20231;42.710;23.280;2023-02-01T09:01:37;95169.44;;;4.79;54.74
33953;BME280;20231;42.710;23.280;2023-02-01T09:04:02;95168.09;;;4.93;54.64
33953;BME280;20231;42.710;23.280;2023-02-01T09:06:27;95183.47;;;5.05;53.90
33953;BME280;20231;42.710;23.280;2023-02-01T09:08:53;95170.41;;;4.89;54.52
33953;BME280;20231;42.710;23.280;2023-02-01T09:11:18;95191.63;;;5.09;54.50
33953;BME280;20231;42.710;23.280;2023-02-01T09:13:47;95199.22;;;5.10;54.14
33953;BME280;20231;42.710;23.280;2023-02-01T09:16:13;95208.44;;;4.80;54.29
33953;BME280;20231;42.710;23.280;2023-02-01T09:18:39;95192.00;;;4.85;54.85
33953;BME280;20231;42.710;23.280;2023-02-01T09:21:07;95195.03;;;4.77;54.52
33953;BME280;20231;42.710;23.280;2023-02-01T09:23:34;95189.41;;;5.01;54.71
33953;BME280;20231;42.710;23.280;2023-02-01T09:26:01;95182.38;;;5.01;54.37
33953;BME280;20231;42.710;23.280;2023-02-01T09:28:26;95183.53;;;4.61;54.70
33953;BME280;20231;42.710;23.280;2023-02-01T09:30:56;95178.31;;;5.10;54.29
33953;BME280;20231;42.710;23.280;2023-02-01T09:33:22;95176.09;;;5.19;53.74
33953;BME280;20231;42.710;23.280;2023-02-01T09:35:49;95200.66;;;5.18;53.41
33953;BME280;20231;42.710;23.280;2023-02-01T09:38:14;95177.59;;;5.15;52.56
33953;BME280;20231;42.710;23.280;2023-02-01T09:40:43;95150.44;;;5.16;53.01
33953;BME280;20231;42.710;23.280;2023-02-01T09:48:35;95164.03;;;5.18;52.69
33953;BME280;20231;42.710;23.280;2023-02-01T09:51:06;95162.16;;;5.30;52.21
33953;BME280;20231;42.710;23.280;2023-02-01T09:53:40;95160.69;;;5.39;52.53
33953;BME280;20231;42.710;23.280;2023-02-01T09:56:30;95132.75;;;5.61;52.14
33953;BME280;20231;42.710;23.280;2023-02-01T09:59:23;95131.66;;;5.40;52.66
33953;BME280;20231;42.710;23.280;2023-02-01T10:01:52;95149.81;;;5.47;52.00
33953;BME280;20231;42.710;23.280;2023-02-01T10:04:17;95140.69;;;5.49;51.79
33953;BME280;20231;42.710;23.280;2023-02-01T10:17:00;95136.50;;;6.12;50.26
33953;BME280;20231;42.710;23.280;2023-02-01T10:22:10;95111.19;;;5.96;50.26
33953;BME280;20231;42.710;23.280;2023-02-01T10:24:44;95143.94;;;6.20;49.97
33953;BME280;20231;42.710;23.280;2023-02-01T10:27:23;95117.50;;;6.00;49.51
33953;BME280;20231;42.710;23.280;2023-02-01T10:30:23;95110.91;;;6.19;49.94
33953;BME280;20231;42.710;23.280;2023-02-01T10:32:54;95110.50;;;5.79;50.79
33953;BME280;20231;42.710;23.280;2023-02-01T10:35:31;95088.78;;;5.84;50.70
33953;BME280;20231;42.710;23.280;2023-02-01T10:38:01;95117.03;;;6.03;50.02
33953;BME280;20231;42.710;23.280;2023-02-01T10:40:28;95118.16;;;6.12;49.92
33953;BME280;20231;42.710;23.280;2023-02-01T10:42:57;95113.19;;;6.11;49.88
33953;BME280;20231;42.710;23.280;2023-02-01T10:45:26;95096.00;;;6.20;49.47
33953;BME280;20231;42.710;23.280;2023-02-01T10:47:54;95102.97;;;6.09;49.53
33953;BME280;20231;42.710;23.280;2023-02-01T10:50:34;95118.00;;;6.50;48.59
33953;BME280;20231;42.710;23.280;2023-02-01T10:53:25;95124.13;;;6.60;48.98
33953;BME280;20231;42.710;23.280;2023-02-01T10:55:55;95125.69;;;6.56;48.13
33953;BME280;20231;42.710;23.280;2023-02-01T10:58:27;95139.09;;;6.91;48.23
33953;BME280;20231;42.710;23.280;2023-02-01T11:05:55;95099.47;;;6.56;48.47
33953;BME280;20231;42.710;23.280;2023-02-01T11:08:21;95107.53;;;6.50;48.87
33953;BME280;20231;42.710;23.280;2023-02-01T11:10:47;95165.81;;;6.09;48.38
33953;BME280;20231;42.710;23.280;2023-02-01T11:13:17;95104.16;;;6.02;48.91
33953;BME280;20231;42.710;23.280;2023-02-01T11:15:47;95088.22;;;6.30;48.84
33953;BME280;20231;42.710;23.280;2023-02-01T11:18:25;95110.41;;;6.48;47.87
33953;BME280;20231;42.710;23.280;2023-02-01T11:20:52;95083.16;;;6.86;48.15
33953;BME280;20231;42.710;23.280;2023-02-01T11:23:22;95089.94;;;6.77;47.77
33953;BME280;20231;42.710;23.280;2023-02-01T11:26:00;95102.72;;;7.05;47.43
33953;BME280;20231;42.710;23.280;2023-02-01T11:28:31;95059.47;;;6.71;48.26
33953;BME280;20231;42.710;23.280;2023-02-01T11:31:09;95085.97;;;6.69;48.06
33953;BME280;20231;42.710;23.280;2023-02-01T11:33:37;95092.50;;;7.08;47.94
33953;BME280;20231;42.710;23.280;2023-02-01T11:36:16;95082.13;;;7.23;47.92
33953;BME280;20231;42.710;23.280;2023-02-01T11:38:52;95092.47;;;7.03;48.28
33953;BME280;20231;42.710;23.280;2023-02-01T11:41:24;95078.44;;;7.19;47.03
33953;BME280;20231;42.710;23.280;2023-02-01T11:43:54;95093.66;;;7.27;46.96
33953;BME280;20231;42.710;23.280;2023-02-01T11:46:22;95068.31;;;6.96;47.85
33953;BME280;20231;42.710;23.280;2023-02-01T11:48:51;95081.00;;;7.14;47.05
33953;BME280;20231;42.710;23.280;2023-02-01T11:51:21;95052.56;;;7.47;46.91
33953;BME280;20231;42.710;23.280;2023-02-01T11:54:05;95049.53;;;7.75;46.08
33953;BME280;20231;42.710;23.280;2023-02-01T11:57:05;95068.69;;;7.76;45.64
33953;BME280;20231;42.710;23.280;2023-02-01T12:08:24;95053.94;;;7.60;45.99
33953;BME280;20231;42.710;23.280;2023-02-01T12:13:27;95038.25;;;7.79;45.81
33953;BME280;20231;42.710;23.280;2023-02-01T12:16:07;95043.03;;;8.02;45.71
33953;BME280;20231;42.710;23.280;2023-02-01T12:27:04;95043.59;;;8.09;45.32
33953;BME280;20231;42.710;23.280;2023-02-01T12:30:07;95022.28;;;7.96;45.81
33953;BME280;20231;42.710;23.280;2023-02-01T12:33:17;95021.94;;;7.63;45.91
33953;BME280;20231;42.710;23.280;2023-02-01T12:41:28;95028.13;;;8.18;44.42
33953;BME280;20231;42.710;23.280;2023-02-01T12:46:43;94995.97;;;7.71;45.22
33953;BME280;20231;42.710;23.280;2023-02-01T12:49:15;95018.63;;;8.12;44.76
33953;BME280;20231;42.710;23.280;2023-02-01T12:51:44;95040.75;;;8.41;43.94
33953;BME280;20231;42.710;23.280;2023-02-01T12:59:26;95018.13;;;8.35;44.33
33953;BME280;20231;42.710;23.280;2023-02-01T13:02:00;95056.00;;;8.39;43.71
33953;BME280;20231;42.710;23.280;2023-02-01T13:04:37;95031.03;;;8.66;42.84
33953;BME280;20231;42.710;23.280;2023-02-01T13:07:14;95022.34;;;8.60;43.71
33953;BME280;20231;42.710;23.280;2023-02-01T13:09:47;95037.59;;;8.49;43.96
33953;BME280;20231;42.710;23.280;2023-02-01T13:12:24;95047.63;;;8.52;43.42
33953;BME280;20231;42.710;23.280;2023-02-01T13:14:57;95030.75;;;8.48;43.11
33953;BME280;20231;42.710;23.280;2023-02-01T13:17:30;95034.47;;;8.52;42.65
33953;BME280;20231;42.710;23.280;2023-02-01T13:20:02;95054.94;;;8.59;42.51
33953;BME280;20231;42.710;23.280;2023-02-01T13:22:41;95039.16;;;8.35;42.82
33953;BME280;20231;42.710;23.280;2023-02-01T13:25:33;95022.38;;;8.51;42.47
33953;BME280;20231;42.710;23.280;2023-02-01T13:28:14;95033.66;;;8.51;42.45
33953;BME280;20231;42.710;23.280;2023-02-01T13:37:05;95044.84;;;7.97;43.15
33953;BME280;20231;42.710;23.280;2023-02-01T13:44:59;95018.94;;;8.35;43.31
33953;BME280;20231;42.710;23.280;2023-02-01T13:47:30;95045.25;;;8.60;42.88
33953;BME280;20231;42.710;23.280;2023-02-01T13:50:12;95032.31;;;8.29;43.57
33953;BME280;20231;42.710;23.280;2023-02-01T13:52:42;95036.56;;;8.40;43.48
33953;BME280;20231;42.710;23.280;2023-02-01T13:57:48;95034.44;;;8.86;42.46
33953;BME280;20231;42.710;23.280;2023-02-01T14:00:34;95037.31;;;8.90;41.47
33953;BME280;20231;42.710;23.280;2023-02-01T14:13:41;95048.13;;;8.68;42.45
33953;BME280;20231;42.710;23.280;2023-02-01T14:16:15;95038.66;;;8.57;42.63
33953;BME280;20231;42.710;23.280;2023-02-01T14:21:23;95044.41;;;9.04;41.68
33953;BME280;20231;42.710;23.280;2023-02-01T14:26:21;95023.38;;;8.79;42.32
33953;BME280;20231;42.710;23.280;2023-02-01T14:29:19;95023.38;;;8.99;42.28
33953;BME280;20231;42.710;23.280;2023-02-01T14:34:19;95014.69;;;9.04;42.52
33953;BME280;20231;42.710;23.280;2023-02-01T14:36:58;95012.00;;;9.14;42.37
33953;BME280;20231;42.710;23.280;2023-02-01T14:39:40;95005.47;;;8.91;42.51
33953;BME280;20231;42.710;23.280;2023-02-01T14:42:24;95005.50;;;8.81;42.51
33953;BME280;20231;42.710;23.280;2023-02-01T14:44:51;95010.78;;;8.42;42.43
33953;BME280;20231;42.710;23.280;2023-02-01T14:50:17;95026.75;;;7.95;43.60
33953;BME280;20231;42.710;23.280;2023-02-01T14:52:47;95025.47;;;8.08;43.31
33953;BME280;20231;42.710;23.280;2023-02-01T14:55:38;95034.41;;;8.17;43.77
33953;BME280;20231;42.710;23.280;2023-02-01T14:58:12;95028.16;;;8.28;44.01
33953;BME280;20231;42.710;23.280;2023-02-01T15:00:57;95029.44;;;8.15;44.20
33953;BME280;20231;42.710;23.280;2023-02-01T15:05:58;95016.06;;;8.27;44.39
33953;BME280;20231;42.710;23.280;2023-02-01T15:08:38;95017.34;;;8.44;43.92
33953;BME280;20231;42.710;23.280;2023-02-01T15:11:11;95039.72;;;8.32;44.23
33953;BME280;20231;42.710;23.280;2023-02-01T15:13:39;95015.72;;;8.03;44.28
33953;BME280;20231;42.710;23.280;2023-02-01T15:16:14;95025.22;;;8.14;44.78
33953;BME280;20231;42.710;23.280;2023-02-01T15:18:40;95006.25;;;8.12;44.77
33953;BME280;20231;42.710;23.280;2023-02-01T15:21:13;95000.78;;;8.09;44.90
33953;BME280;20231;42.710;23.280;2023-02-01T15:23:39;95001.06;;;8.27;44.78
33953;BME280;20231;42.710;23.280;2023-02-01T15:26:05;94968.75;;;8.27;44.32